createdAt,value
2023-06-25T00:00:29.201Z,99447.16
2023-06-25T00:01:02.130Z,99443.19
2023-06-25T00:01:34.144Z,99444.16
2023-06-25T00:02:06.541Z,99437.06
2023-06-25T00:02:38.525Z,99443.31
2023-06-25T00:03:10.667Z,99446.72
2023-06-25T00:03:42.782Z,99439.16
2023-06-25T00:04:14.973Z,99440.19
2023-06-25T00:04:46.878Z,99442.72
2023-06-25T00:05:18.867Z,99431.25
2023-06-25T00:05:51.099Z,99439.31
2023-06-25T00:06:23.373Z,99448.94
2023-06-25T00:06:55.472Z,99440.75
2023-06-25T00:07:27.500Z,99440.19
2023-06-25T00:07:59.546Z,99442.13
2023-06-25T00:08:31.443Z,99440.41
2023-06-25T00:09:04.196Z,99441.00
2023-06-25T00:09:36.156Z,99437.50
2023-06-25T00:10:09.128Z,99434.72
2023-06-25T00:10:41.312Z,99430.47
2023-06-25T00:11:13.472Z,99432.31
2023-06-25T00:11:45.411Z,99437.56
2023-06-25T00:12:17.354Z,99434.88
2023-06-25T00:12:49.322Z,99425.22
2023-06-25T00:13:21.236Z,99432.19
2023-06-25T00:13:54.980Z,99426.22
2023-06-25T00:14:26.904Z,99428.31
2023-06-25T00:14:58.850Z,99429.03
2023-06-25T00:15:30.775Z,99427.31
2023-06-25T00:16:02.716Z,99425.00
2023-06-25T00:16:34.716Z,99427.84
2023-06-25T00:17:06.833Z,99427.09
2023-06-25T00:17:40.187Z,99421.63
2023-06-25T00:18:12.142Z,99424.19
2023-06-25T00:18:43.996Z,99417.09
2023-06-25T00:19:18.602Z,99420.38
2023-06-25T00:19:50.517Z,99421.03
2023-06-25T00:20:25.237Z,99418.81
2023-06-25T00:20:57.172Z,99422.47
2023-06-25T00:21:29.584Z,99417.47
2023-06-25T00:22:01.793Z,99417.38
2023-06-25T00:22:33.765Z,99415.75
2023-06-25T00:23:07.888Z,99421.41
2023-06-25T00:23:40.352Z,99421.03
2023-06-25T00:24:12.573Z,99418.44
2023-06-25T00:24:44.499Z,99427.53
2023-06-25T00:25:17.662Z,99422.53
2023-06-25T00:25:49.572Z,99413.13
2023-06-25T00:26:21.492Z,99419.25
2023-06-25T00:26:53.386Z,99430.44
2023-06-25T00:27:25.272Z,99425.94
2023-06-25T00:27:59.286Z,99418.88
2023-06-25T00:28:31.239Z,99427.66
2023-06-25T00:29:04.525Z,99426.78
2023-06-25T00:29:36.589Z,99428.50
2023-06-25T00:30:09.079Z,99429.47
2023-06-25T00:30:41.013Z,99427.75
2023-06-25T00:31:16.252Z,99426.34
2023-06-25T00:31:48.177Z,99434.78
2023-06-25T00:32:20.289Z,99422.22
2023-06-25T00:32:55.911Z,99433.56
2023-06-25T00:33:28.133Z,99430.88
2023-06-25T00:34:00.039Z,99430.44
2023-06-25T00:34:31.951Z,99423.03
2023-06-25T00:35:04.248Z,99425.50
2023-06-25T00:35:51.394Z,99426.72
2023-06-25T00:36:23.796Z,99431.09
2023-06-25T00:36:55.752Z,99428.56
2023-06-25T00:37:27.638Z,99423.44
2023-06-25T00:38:02.624Z,99432.09
2023-06-25T00:38:40.102Z,99429.91
2023-06-25T00:39:12.769Z,99424.53
2023-06-25T00:39:48.475Z,99428.09
2023-06-25T00:40:20.449Z,99421.16
2023-06-25T00:40:52.566Z,99418.72
2023-06-25T00:41:28.223Z,99428.59
2023-06-25T00:42:02.312Z,99426.63
2023-06-25T00:42:42.541Z,99432.38
2023-06-25T00:43:17.281Z,99433.34
2023-06-25T00:43:49.195Z,99429.09
2023-06-25T00:44:21.224Z,99427.81
2023-06-25T00:44:53.219Z,99428.94
2023-06-25T00:45:28.471Z,99422.72
2023-06-25T00:46:01.406Z,99425.41
2023-06-25T00:46:33.611Z,99427.09
2023-06-25T00:47:05.669Z,99423.09
2023-06-25T00:47:39.185Z,99421.41
2023-06-25T00:48:11.172Z,99426.78
2023-06-25T00:48:47.852Z,99424.09
2023-06-25T00:49:20.163Z,99422.25
2023-06-25T00:49:52.162Z,99425.06
2023-06-25T00:50:24.864Z,99415.94
2023-06-25T00:51:02.421Z,99424.47
2023-06-25T00:51:38.351Z,99424.47
2023-06-25T00:52:12.868Z,99420.81
2023-06-25T00:52:44.887Z,99426.91
2023-06-25T00:53:17.674Z,99438.75
2023-06-25T00:53:49.538Z,99436.06
2023-06-25T00:54:21.841Z,99436.78
2023-06-25T00:54:53.717Z,99435.22
2023-06-25T00:55:26.808Z,99434.38
2023-06-25T00:55:58.773Z,99431.81
2023-06-25T00:56:30.807Z,99436.19
2023-06-25T00:57:05.265Z,99429.50
2023-06-25T00:57:37.271Z,99436.19
2023-06-25T00:58:09.271Z,99437.91
2023-06-25T00:58:42.556Z,99440.84
2023-06-25T00:59:14.840Z,99439.63
2023-06-25T00:59:49.467Z,99432.06
2023-06-25T01:00:21.461Z,99433.06
2023-06-25T01:00:58.079Z,99443.91
2023-06-25T01:01:46.460Z,99437.69
2023-06-25T01:02:45.626Z,99435.63
2023-06-25T01:03:29.951Z,99435.53
2023-06-25T01:04:11.147Z,99436.84
2023-06-25T01:04:54.489Z,99437.69
2023-06-25T01:05:32.726Z,99428.19
2023-06-25T01:06:30.494Z,99430.88
2023-06-25T01:07:12.269Z,99429.56
2023-06-25T01:07:46.403Z,99431.88
2023-06-25T01:08:18.900Z,99437.25
2023-06-25T01:08:52.309Z,99434.78
2023-06-25T01:09:26.626Z,99432.09
2023-06-25T01:09:59.144Z,99435.53
2023-06-25T01:10:31.123Z,99434.56
2023-06-25T01:11:04.515Z,99439.66
2023-06-25T01:11:38.819Z,99429.81
2023-06-25T01:12:10.697Z,99438.59
2023-06-25T01:12:45.654Z,99439.06
2023-06-25T01:13:17.538Z,99437.34
2023-06-25T01:13:49.611Z,99435.78
2023-06-25T01:14:23.165Z,99439.94
2023-06-25T01:14:56.033Z,99439.94
2023-06-25T01:15:27.961Z,99448.81
2023-06-25T01:15:59.858Z,99441.88
2023-06-25T01:16:32.464Z,99436.75
2023-06-25T01:17:06.752Z,99431.97
2023-06-25T01:17:43.251Z,99438.59
2023-06-25T01:18:15.934Z,99441.50
2023-06-25T01:19:02.639Z,99442.22
2023-06-25T01:19:36.564Z,99443.91
2023-06-25T01:20:12.998Z,99443.06
2023-06-25T01:20:45.228Z,99437.56
2023-06-25T01:21:19.849Z,99434.75
2023-06-25T01:21:53.383Z,99435.16
2023-06-25T01:22:33.057Z,99441.63
2023-06-25T01:23:05.135Z,99439.78
2023-06-25T01:23:38.011Z,99442.72
2023-06-25T01:24:10.209Z,99445.31
2023-06-25T01:24:45.889Z,99440.16
2023-06-25T01:25:18.704Z,99447.34
2023-06-25T01:25:51.148Z,99443.84
2023-06-25T01:26:23.138Z,99450.19
2023-06-25T01:27:00.949Z,99446.38
2023-06-25T01:27:35.327Z,99450.78
2023-06-25T01:28:07.321Z,99452.34
2023-06-25T01:28:39.908Z,99442.72
2023-06-25T01:29:12.310Z,99450.03
2023-06-25T01:29:45.346Z,99444.94
2023-06-25T01:30:19.082Z,99444.66
2023-06-25T01:30:53.412Z,99444.81
2023-06-25T01:31:32.924Z,99446.03
2023-06-25T01:32:08.293Z,99447.50
2023-06-25T01:32:45.615Z,99444.31
2023-06-25T01:33:20.444Z,99440.66
2023-06-25T01:33:52.694Z,99443.09
2023-06-25T01:34:25.001Z,99445.28
2023-06-25T01:34:57.003Z,99445.28
2023-06-25T01:35:28.954Z,99440.16
2023-06-25T01:36:00.837Z,99438.47
2023-06-25T01:36:33.435Z,99435.06
2023-06-25T01:37:07.515Z,99444.56
2023-06-25T01:37:39.540Z,99441.88
2023-06-25T01:38:11.836Z,99437.63
2023-06-25T01:38:43.746Z,99438.34
2023-06-25T01:39:17.393Z,99439.19
2023-06-25T01:39:52.038Z,99445.41
2023-06-25T01:40:24.220Z,99434.34
2023-06-25T01:40:56.157Z,99437.03
2023-06-25T01:41:28.235Z,99441.38
2023-06-25T01:42:00.271Z,99435.78
2023-06-25T01:42:32.151Z,99435.31
2023-06-25T01:43:04.042Z,99435.91
2023-06-25T01:43:35.994Z,99437.63
2023-06-25T01:44:07.943Z,99431.25
2023-06-25T01:44:40.428Z,99434.78
2023-06-25T01:45:13.016Z,99434.09
2023-06-25T01:45:44.966Z,99435.78
2023-06-25T01:46:16.990Z,99436.75
2023-06-25T01:46:48.936Z,99434.34
2023-06-25T01:47:20.933Z,99437.03
2023-06-25T01:47:52.941Z,99437.88
2023-06-25T01:48:24.878Z,99433.59
2023-06-25T01:48:56.808Z,99432.03
2023-06-25T01:49:32.244Z,99438.50
2023-06-25T01:50:06.202Z,99433.13
2023-06-25T01:50:38.114Z,99432.13
2023-06-25T01:51:10.063Z,99442.03
2023-06-25T01:51:41.999Z,99431.09
2023-06-25T01:52:14.381Z,99440.72
2023-06-25T01:52:46.323Z,99442.16
2023-06-25T01:53:19.229Z,99451.19
2023-06-25T01:53:51.324Z,99448.88
2023-06-25T01:54:23.271Z,99444.50
2023-06-25T01:54:55.166Z,99454.25
2023-06-25T01:55:27.142Z,99445.47
2023-06-25T01:55:59.061Z,99444.50
2023-06-25T01:56:30.988Z,99446.34
2023-06-25T01:57:03.728Z,99458.03
2023-06-25T01:57:35.674Z,99450.97
2023-06-25T01:58:07.576Z,99456.09
2023-06-25T01:58:39.503Z,99449.03
2023-06-25T01:59:11.809Z,99450.88
2023-06-25T01:59:43.749Z,99460.75
2023-06-25T02:00:16.457Z,99454.66
2023-06-25T02:00:48.948Z,99450.53
2023-06-25T02:01:22.210Z,99460.25
2023-06-25T02:01:55.032Z,99456.59
2023-06-25T02:02:27.289Z,99453.91
2023-06-25T02:02:59.335Z,99456.59
2023-06-25T02:03:31.361Z,99460.03
2023-06-25T02:04:03.377Z,99454.53
2023-06-25T02:04:35.546Z,99455.38
2023-06-25T02:05:07.771Z,99456.94
2023-06-25T02:05:39.752Z,99462.22
2023-06-25T02:06:11.706Z,99455.88
2023-06-25T02:06:43.729Z,99455.97
2023-06-25T02:07:15.703Z,99459.63
2023-06-25T02:07:47.696Z,99460.63
2023-06-25T02:08:19.975Z,99456.94
2023-06-25T02:08:51.959Z,99462.91
2023-06-25T02:09:23.984Z,99453.31
2023-06-25T02:09:55.982Z,99450.00
2023-06-25T02:10:29.971Z,99457.69
2023-06-25T02:11:01.911Z,99464.75
2023-06-25T02:11:33.824Z,99463.91
2023-06-25T02:12:06.152Z,99464.91
2023-06-25T02:12:38.081Z,99463.91
2023-06-25T02:13:10.016Z,99471.22
2023-06-25T02:13:42.087Z,99467.56
2023-06-25T02:14:14.079Z,99467.56
2023-06-25T02:14:45.967Z,99461.34
2023-06-25T02:15:17.878Z,99461.25
2023-06-25T02:15:49.860Z,99465.59
2023-06-25T02:16:21.864Z,99460.97
2023-06-25T02:16:53.825Z,99456.22
2023-06-25T02:17:25.797Z,99462.56
2023-06-25T02:17:58.000Z,99454.50
2023-06-25T02:18:30.688Z,99459.53
2023-06-25T02:19:02.598Z,99458.44
2023-06-25T02:19:34.763Z,99458.06
2023-06-25T02:20:07.643Z,99461.59
2023-06-25T02:20:39.617Z,99450.13
2023-06-25T02:21:11.831Z,99462.56
2023-06-25T02:21:43.726Z,99457.09
2023-06-25T02:22:15.670Z,99454.66
2023-06-25T02:22:49.320Z,99454.78
2023-06-25T02:23:21.315Z,99460.25
2023-06-25T02:23:53.263Z,99454.66
2023-06-25T02:24:25.358Z,99462.47
2023-06-25T02:24:57.315Z,99457.09
2023-06-25T02:25:29.315Z,99459.78
2023-06-25T02:26:01.324Z,99462.47
2023-06-25T02:26:33.374Z,99462.72
2023-06-25T02:27:05.881Z,99457.47
2023-06-25T02:27:37.823Z,99460.03
2023-06-25T02:28:09.737Z,99462.56
2023-06-25T02:28:41.824Z,99455.63
2023-06-25T02:29:13.715Z,99457.47
2023-06-25T02:29:45.635Z,99459.19
2023-06-25T02:30:17.569Z,99458.31
2023-06-25T02:30:49.527Z,99461.13
2023-06-25T02:31:21.529Z,99458.31
2023-06-25T02:31:53.652Z,99462.81
2023-06-25T02:32:25.740Z,99461.84
2023-06-25T02:32:57.777Z,99463.09
2023-06-25T02:33:29.731Z,99456.38
2023-06-25T02:34:01.635Z,99460.66
2023-06-25T02:34:33.704Z,99469.66
2023-06-25T02:35:05.940Z,99457.97
2023-06-25T02:35:38.174Z,99465.88
2023-06-25T02:36:10.237Z,99461.00
2023-06-25T02:36:42.142Z,99458.59
2023-06-25T02:37:16.355Z,99445.38
2023-06-25T02:37:48.533Z,99454.28
2023-06-25T02:38:20.478Z,99449.94
2023-06-25T02:38:52.381Z,99454.44
2023-06-25T02:39:24.407Z,99456.00
2023-06-25T02:39:56.353Z,99451.75
2023-06-25T02:40:31.206Z,99453.44
2023-06-25T02:41:03.099Z,99451.88
2023-06-25T02:41:35.085Z,99453.56
2023-06-25T02:42:07.188Z,99455.41
2023-06-25T02:42:39.659Z,99458.34
2023-06-25T02:43:12.556Z,99452.13
2023-06-25T02:43:44.487Z,99452.97
2023-06-25T02:44:16.368Z,99457.59
2023-06-25T02:44:48.286Z,99456.50
2023-06-25T02:45:20.388Z,99453.09
2023-06-25T02:45:52.376Z,99457.47
2023-06-25T02:46:25.960Z,99449.19
2023-06-25T02:46:57.904Z,99455.16
2023-06-25T02:47:29.900Z,99452.59
2023-06-25T02:48:01.933Z,99458.81
2023-06-25T02:48:35.446Z,99459.66
2023-06-25T02:49:07.570Z,99462.34
2023-06-25T02:49:39.535Z,99449.94
2023-06-25T02:50:11.540Z,99459.56
2023-06-25T02:50:43.504Z,99454.28
2023-06-25T02:51:15.429Z,99457.13
2023-06-25T02:51:47.341Z,99458.81
2023-06-25T02:52:19.312Z,99451.50
2023-06-25T02:52:51.282Z,99456.63
2023-06-25T02:53:23.237Z,99453.31
2023-06-25T02:53:55.226Z,99455.28
2023-06-25T02:54:27.248Z,99451.00
2023-06-25T02:54:59.199Z,99452.72
2023-06-25T02:55:31.249Z,99450.03
2023-06-25T02:56:03.432Z,99456.38
2023-06-25T02:56:35.329Z,99445.88
2023-06-25T02:57:07.253Z,99448.56
2023-06-25T02:57:39.223Z,99445.03
2023-06-25T02:58:11.156Z,99445.03
2023-06-25T02:58:43.049Z,99443.47
2023-06-25T02:59:15.019Z,99443.47
2023-06-25T02:59:46.965Z,99449.53
2023-06-25T03:00:19.043Z,99447.72
2023-06-25T03:00:51.260Z,99441.50
2023-06-25T03:01:23.228Z,99454.91
2023-06-25T03:01:55.194Z,99445.19
2023-06-25T03:02:27.600Z,99443.56
2023-06-25T03:02:59.707Z,99446.00
2023-06-25T03:03:31.741Z,99449.53
2023-06-25T03:04:03.763Z,99444.31
2023-06-25T03:04:35.675Z,99447.00
2023-06-25T03:05:07.944Z,99444.19
2023-06-25T03:05:40.230Z,99443.56
2023-06-25T03:06:12.556Z,99439.06
2023-06-25T03:06:44.615Z,99441.50
2023-06-25T03:07:16.542Z,99437.94
2023-06-25T03:07:58.444Z,99431.63
2023-06-25T03:08:30.409Z,99440.63
2023-06-25T03:09:02.394Z,99434.31
2023-06-25T03:09:34.338Z,99436.28
2023-06-25T03:10:06.850Z,99438.94
2023-06-25T03:10:41.541Z,99435.41
2023-06-25T03:11:13.463Z,99435.28
2023-06-25T03:11:45.412Z,99430.75
2023-06-25T03:12:17.379Z,99431.75
2023-06-25T03:12:49.357Z,99427.47
2023-06-25T03:13:21.334Z,99421.13
2023-06-25T03:13:53.367Z,99424.69
2023-06-25T03:14:34.812Z,99432.72
2023-06-25T03:15:08.128Z,99431.16
2023-06-25T03:15:40.066Z,99430.66
2023-06-25T03:16:11.997Z,99433.22
2023-06-25T03:16:44.015Z,99429.69
2023-06-25T03:17:16.060Z,99427.84
2023-06-25T03:17:48.341Z,99430.03
2023-06-25T03:18:20.278Z,99431.63
2023-06-25T03:18:52.651Z,99432.47
2023-06-25T03:19:24.618Z,99429.78
2023-06-25T03:19:56.534Z,99427.22
2023-06-25T03:20:28.477Z,99428.06
2023-06-25T03:21:00.449Z,99426.25
2023-06-25T03:21:32.379Z,99426.41
2023-06-25T03:22:04.475Z,99427.63
2023-06-25T03:22:36.580Z,99432.47
2023-06-25T03:23:08.591Z,99424.19
2023-06-25T03:23:40.740Z,99423.31
2023-06-25T03:24:12.666Z,99431.00
2023-06-25T03:24:44.595Z,99427.94
2023-06-25T03:25:16.703Z,99425.38
2023-06-25T03:25:48.611Z,99429.78
2023-06-25T03:26:20.867Z,99424.66
2023-06-25T03:26:52.883Z,99424.78
2023-06-25T03:27:25.025Z,99423.69
2023-06-25T03:27:57.020Z,99420.41
2023-06-25T03:28:28.882Z,99423.81
2023-06-25T03:29:00.845Z,99421.25
2023-06-25T03:29:32.750Z,99423.81
2023-06-25T03:30:07.995Z,99419.41
2023-06-25T03:30:40.127Z,99422.47
2023-06-25T03:31:12.152Z,99425.00
2023-06-25T03:31:44.897Z,99423.19
2023-06-25T03:32:16.911Z,99427.59
2023-06-25T03:32:48.973Z,99430.28
2023-06-25T03:33:21.078Z,99425.75
2023-06-25T03:33:53.005Z,99420.25
2023-06-25T03:34:24.928Z,99422.06
2023-06-25T03:34:56.849Z,99420.50
2023-06-25T03:35:28.761Z,99423.91
2023-06-25T03:36:00.831Z,99419.78
2023-06-25T03:36:33.143Z,99424.91
2023-06-25T03:37:05.607Z,99423.19
2023-06-25T03:37:37.559Z,99425.63
2023-06-25T03:38:09.484Z,99416.00
2023-06-25T03:38:41.444Z,99419.13
2023-06-25T03:39:13.427Z,99424.50
2023-06-25T03:39:45.410Z,99421.81
2023-06-25T03:40:17.396Z,99412.47
2023-06-25T03:40:49.490Z,99419.78
2023-06-25T03:41:21.531Z,99415.50
2023-06-25T03:41:53.404Z,99422.22
2023-06-25T03:42:25.516Z,99415.63
2023-06-25T03:42:57.462Z,99421.72
2023-06-25T03:43:29.679Z,99425.13
2023-06-25T03:44:01.774Z,99420.59
2023-06-25T03:44:34.186Z,99424.13
2023-06-25T03:45:06.924Z,99425.50
2023-06-25T03:45:39.069Z,99426.72
2023-06-25T03:46:11.176Z,99415.16
2023-06-25T03:46:43.109Z,99420.00
2023-06-25T03:47:15.131Z,99426.84
2023-06-25T03:47:47.168Z,99423.91
2023-06-25T03:48:19.300Z,99418.44
2023-06-25T03:48:51.433Z,99425.00
2023-06-25T03:49:23.431Z,99420.28
2023-06-25T03:49:55.374Z,99421.50
2023-06-25T03:50:27.435Z,99426.50
2023-06-25T03:50:59.679Z,99424.94
2023-06-25T03:51:31.605Z,99429.44
2023-06-25T03:52:03.737Z,99424.06
2023-06-25T03:52:35.730Z,99424.78
2023-06-25T03:53:07.641Z,99424.94
2023-06-25T03:53:40.044Z,99430.41
2023-06-25T03:54:11.960Z,99422.34
2023-06-25T03:54:43.934Z,99427.00
2023-06-25T03:55:15.910Z,99413.81
2023-06-25T03:55:47.887Z,99420.28
2023-06-25T03:56:19.917Z,99421.88
2023-06-25T03:56:51.867Z,99420.03
2023-06-25T03:57:24.466Z,99419.78
2023-06-25T03:57:58.969Z,99421.50
2023-06-25T03:58:30.911Z,99422.47
2023-06-25T03:59:03.104Z,99425.16
2023-06-25T03:59:35.153Z,99424.06
2023-06-25T04:00:07.788Z,99422.00
2023-06-25T04:00:40.387Z,99422.09
2023-06-25T04:01:12.333Z,99419.56
2023-06-25T04:01:44.390Z,99416.13
2023-06-25T04:02:16.535Z,99421.50
2023-06-25T04:02:48.608Z,99415.66
2023-06-25T04:03:20.580Z,99415.53
2023-06-25T04:03:52.663Z,99419.31
2023-06-25T04:04:24.762Z,99419.31
2023-06-25T04:04:56.871Z,99413.09
2023-06-25T04:05:28.895Z,99415.06
2023-06-25T04:06:01.150Z,99421.88
2023-06-25T04:06:33.138Z,99418.34
2023-06-25T04:07:05.479Z,99412.00
2023-06-25T04:07:37.456Z,99416.28
2023-06-25T04:08:09.404Z,99422.97
2023-06-25T04:08:41.700Z,99415.88
2023-06-25T04:09:13.628Z,99427.00
2023-06-25T04:09:45.544Z,99418.81
2023-06-25T04:10:17.530Z,99426.41
2023-06-25T04:10:49.592Z,99420.16
2023-06-25T04:11:21.599Z,99427.47
2023-06-25T04:11:53.543Z,99424.31
2023-06-25T04:12:25.480Z,99424.06
2023-06-25T04:12:57.581Z,99427.09
2023-06-25T04:13:29.823Z,99427.09
2023-06-25T04:14:01.928Z,99424.69
2023-06-25T04:14:33.854Z,99417.75
2023-06-25T04:15:06.304Z,99421.03
2023-06-25T04:15:38.461Z,99413.34
2023-06-25T04:16:10.636Z,99419.41
2023-06-25T04:16:42.693Z,99422.84
2023-06-25T04:17:14.617Z,99417.22
2023-06-25T04:17:48.230Z,99416.25
2023-06-25T04:18:20.380Z,99414.28
2023-06-25T04:18:52.528Z,99413.69
2023-06-25T04:19:24.443Z,99418.94
2023-06-25T04:19:56.352Z,99417.84
2023-06-25T04:20:29.251Z,99409.91
2023-06-25T04:21:01.168Z,99417.94
2023-06-25T04:21:33.089Z,99406.88
2023-06-25T04:22:05.519Z,99414.56
2023-06-25T04:22:37.461Z,99416.88
2023-06-25T04:23:09.383Z,99410.38
2023-06-25T04:23:41.313Z,99412.72
2023-06-25T04:24:13.255Z,99409.66
2023-06-25T04:24:45.211Z,99418.44
2023-06-25T04:25:17.173Z,99415.47
2023-06-25T04:25:49.399Z,99415.47
2023-06-25T04:26:21.305Z,99420.59
2023-06-25T04:26:53.320Z,99417.19
2023-06-25T04:27:25.685Z,99408.88
2023-06-25T04:27:57.717Z,99406.69
2023-06-25T04:28:29.599Z,99406.09
2023-06-25T04:29:01.569Z,99410.25
2023-06-25T04:29:33.586Z,99407.56
2023-06-25T04:30:06.208Z,99404.72
2023-06-25T04:30:38.137Z,99418.25
2023-06-25T04:31:10.043Z,99413.50
2023-06-25T04:31:42.018Z,99414.09
2023-06-25T04:32:14.107Z,99409.56
2023-06-25T04:32:50.989Z,99413.44
2023-06-25T04:33:23.048Z,99406.69
2023-06-25T04:33:55.174Z,99408.41
2023-06-25T04:34:27.325Z,99416.25
2023-06-25T04:34:59.336Z,99405.38
2023-06-25T04:35:32.511Z,99413.19
2023-06-25T04:36:04.873Z,99414.03
2023-06-25T04:36:36.795Z,99408.03
2023-06-25T04:37:08.800Z,99412.59
2023-06-25T04:37:40.785Z,99413.94
2023-06-25T04:38:13.038Z,99412.56
2023-06-25T04:38:44.989Z,99415.59
2023-06-25T04:39:16.906Z,99414.09
2023-06-25T04:39:48.821Z,99406.72
2023-06-25T04:40:20.857Z,99411.56
2023-06-25T04:40:52.902Z,99411.44
2023-06-25T04:41:24.871Z,99411.19
2023-06-25T04:41:56.920Z,99407.72
2023-06-25T04:42:28.993Z,99410.13
2023-06-25T04:43:00.930Z,99412.44
2023-06-25T04:43:32.885Z,99412.88
2023-06-25T04:44:05.203Z,99416.75
2023-06-25T04:44:37.214Z,99410.09
2023-06-25T04:45:09.742Z,99413.78
2023-06-25T04:45:43.292Z,99415.06
2023-06-25T04:46:15.304Z,99412.34
2023-06-25T04:46:47.365Z,99413.19
2023-06-25T04:47:19.463Z,99413.91
2023-06-25T04:47:51.445Z,99414.03
2023-06-25T04:48:23.388Z,99419.13
2023-06-25T04:48:55.434Z,99412.22
2023-06-25T04:49:27.530Z,99413.06
2023-06-25T04:49:59.442Z,99413.50
2023-06-25T04:50:31.358Z,99409.41
2023-06-25T04:51:04.586Z,99413.94
2023-06-25T04:51:36.619Z,99416.09
2023-06-25T04:52:08.738Z,99411.16
2023-06-25T04:52:40.792Z,99406.75
2023-06-25T04:53:12.869Z,99401.25
2023-06-25T04:53:44.896Z,99407.38
2023-06-25T04:54:16.948Z,99413.47
2023-06-25T04:54:49.307Z,99415.59
2023-06-25T04:55:21.557Z,99421.25
2023-06-25T04:55:53.535Z,99421.13
2023-06-25T04:56:25.688Z,99411.34
2023-06-25T04:56:57.709Z,99413.47
2023-06-25T04:57:29.725Z,99417.59
2023-06-25T04:58:01.724Z,99420.16
2023-06-25T04:58:34.163Z,99419.03
2023-06-25T04:59:06.194Z,99425.72
2023-06-25T04:59:38.243Z,99424.41
2023-06-25T05:00:10.830Z,99420.34
2023-06-25T05:00:42.788Z,99426.00
2023-06-25T05:01:14.798Z,99417.06
2023-06-25T05:01:46.855Z,99419.75
2023-06-25T05:02:18.940Z,99423.75
2023-06-25T05:02:51.091Z,99422.06
2023-06-25T05:03:23.230Z,99418.09
2023-06-25T05:03:56.561Z,99420.78
2023-06-25T05:04:28.714Z,99425.47
2023-06-25T05:05:00.707Z,99415.97
2023-06-25T05:05:33.741Z,99423.47
2023-06-25T05:06:05.918Z,99424.25
2023-06-25T05:06:37.831Z,99428.88
2023-06-25T05:07:10.157Z,99425.09
2023-06-25T05:07:42.169Z,99423.91
2023-06-25T05:08:14.280Z,99426.94
2023-06-25T05:08:46.415Z,99422.41
2023-06-25T05:09:18.347Z,99429.31
2023-06-25T05:09:50.343Z,99415.84
2023-06-25T05:10:22.926Z,99421.81
2023-06-25T05:10:55.007Z,99429.94
2023-06-25T05:11:27.049Z,99426.09
2023-06-25T05:11:59.116Z,99424.56
2023-06-25T05:12:31.063Z,99430.50
2023-06-25T05:13:05.318Z,99427.66
2023-06-25T05:13:40.078Z,99426.97
2023-06-25T05:14:13.305Z,99427.09
2023-06-25T05:14:45.415Z,99422.81
2023-06-25T05:15:17.953Z,99425.94
2023-06-25T05:15:49.918Z,99434.59
2023-06-25T05:16:21.972Z,99427.25
2023-06-25T05:16:54.001Z,99424.25
2023-06-25T05:17:27.566Z,99432.63
2023-06-25T05:17:59.598Z,99430.38
2023-06-25T05:18:31.898Z,99429.81
2023-06-25T05:19:04.133Z,99423.94
2023-06-25T05:19:36.240Z,99423.13
2023-06-25T05:20:08.993Z,99434.47
2023-06-25T05:20:41.147Z,99433.63
2023-06-25T05:21:13.112Z,99429.78
2023-06-25T05:21:45.194Z,99425.38
2023-06-25T05:22:17.161Z,99435.88
2023-06-25T05:22:49.094Z,99429.06
2023-06-25T05:23:24.522Z,99426.94
2023-06-25T05:24:04.892Z,99433.75
2023-06-25T05:24:37.115Z,99436.88
2023-06-25T05:25:09.855Z,99427.53
2023-06-25T05:25:41.954Z,99428.63
2023-06-25T05:26:13.905Z,99432.19
2023-06-25T05:26:55.275Z,99429.66
2023-06-25T05:27:27.270Z,99437.03
2023-06-25T05:27:59.983Z,99430.34
2023-06-25T05:28:32.807Z,99428.06
2023-06-25T05:29:05.918Z,99432.75
2023-06-25T05:29:37.882Z,99435.00
2023-06-25T05:30:10.166Z,99434.44
2023-06-25T05:30:42.204Z,99430.47
2023-06-25T05:31:14.288Z,99438.53
2023-06-25T05:31:47.572Z,99431.72
2023-06-25T05:32:19.523Z,99435.88
2023-06-25T05:32:51.488Z,99446.63
2023-06-25T05:33:23.434Z,99436.28
2023-06-25T05:33:55.592Z,99430.31
2023-06-25T05:34:27.642Z,99441.78
2023-06-25T05:34:59.602Z,99431.72
2023-06-25T05:35:32.052Z,99440.81
2023-06-25T05:36:04.624Z,99441.66
2023-06-25T05:36:36.545Z,99436.84
2023-06-25T05:37:09.117Z,99438.53
2023-06-25T05:37:41.686Z,99439.25
2023-06-25T05:38:13.678Z,99439.94
2023-06-25T05:38:46.334Z,99441.78
2023-06-25T05:39:18.310Z,99439.94
2023-06-25T05:39:50.279Z,99438.84
2023-06-25T05:40:22.240Z,99440.38
2023-06-25T05:40:54.163Z,99442.78
2023-06-25T05:41:26.081Z,99436.53
2023-06-25T05:42:01.689Z,99449.47
2023-06-25T05:42:33.663Z,99440.09
2023-06-25T05:43:05.639Z,99441.38
2023-06-25T05:43:37.621Z,99439.53
2023-06-25T05:44:09.670Z,99444.75
2023-06-25T05:44:41.618Z,99448.00
2023-06-25T05:45:13.516Z,99442.59
2023-06-25T05:45:45.553Z,99433.81
2023-06-25T05:46:18.346Z,99433.81
2023-06-25T05:46:50.368Z,99438.78
2023-06-25T05:47:22.350Z,99445.72
2023-06-25T05:47:54.340Z,99437.03
2023-06-25T05:48:27.339Z,99440.44
2023-06-25T05:48:59.252Z,99432.72
2023-06-25T05:49:31.687Z,99430.16
2023-06-25T05:50:04.394Z,99435.16
2023-06-25T05:50:36.314Z,99432.91
2023-06-25T05:51:08.486Z,99435.22
2023-06-25T05:51:40.437Z,99430.94
2023-06-25T05:52:12.392Z,99435.06
2023-06-25T05:52:45.239Z,99423.81
2023-06-25T05:53:17.230Z,99425.31
2023-06-25T05:53:52.051Z,99425.59
2023-06-25T05:54:24.034Z,99426.31
2023-06-25T05:54:55.998Z,99426.16
2023-06-25T05:55:31.619Z,99422.47
2023-06-25T05:56:03.660Z,99425.28
2023-06-25T05:56:35.663Z,99431.66
2023-06-25T05:57:07.660Z,99429.56
2023-06-25T05:57:39.647Z,99426.13
2023-06-25T05:58:11.616Z,99433.19
2023-06-25T05:58:43.785Z,99425.75
2023-06-25T05:59:15.746Z,99431.03
2023-06-25T05:59:47.660Z,99432.31
2023-06-25T06:00:22.441Z,99439.44
2023-06-25T06:00:54.519Z,99433.88
2023-06-25T06:01:27.452Z,99436.66
2023-06-25T06:01:59.498Z,99431.22
2023-06-25T06:02:31.557Z,99434.34
2023-06-25T06:03:03.572Z,99433.88
2023-06-25T06:03:35.667Z,99433.81
2023-06-25T06:04:07.676Z,99432.38
2023-06-25T06:04:39.729Z,99433.81
2023-06-25T06:05:11.638Z,99428.28
2023-06-25T06:05:43.626Z,99432.69
2023-06-25T06:06:15.540Z,99436.50
2023-06-25T06:06:47.489Z,99431.50
2023-06-25T06:07:19.517Z,99432.09
2023-06-25T06:07:51.626Z,99436.94
2023-06-25T06:08:23.862Z,99440.59
2023-06-25T06:08:55.897Z,99438.44
2023-06-25T06:09:28.249Z,99436.53
2023-06-25T06:10:00.456Z,99439.81
2023-06-25T06:10:32.701Z,99434.78
2023-06-25T06:11:04.725Z,99431.19
2023-06-25T06:11:36.687Z,99430.03
2023-06-25T06:12:09.074Z,99432.41
2023-06-25T06:12:40.996Z,99429.44
2023-06-25T06:13:13.788Z,99432.81
2023-06-25T06:13:46.007Z,99437.91
2023-06-25T06:14:18.495Z,99434.84
2023-06-25T06:14:52.834Z,99440.31
2023-06-25T06:15:24.794Z,99443.56
2023-06-25T06:15:56.780Z,99437.31
2023-06-25T06:16:28.751Z,99434.34
2023-06-25T06:17:00.764Z,99433.50
2023-06-25T06:17:32.979Z,99431.97
2023-06-25T06:18:04.934Z,99443.00
2023-06-25T06:18:37.517Z,99437.31
2023-06-25T06:19:12.910Z,99439.31
2023-06-25T06:19:44.816Z,99438.41
2023-06-25T06:20:16.705Z,99433.75
2023-06-25T06:20:48.718Z,99439.31
2023-06-25T06:21:20.675Z,99438.16
2023-06-25T06:21:52.643Z,99437.38
2023-06-25T06:22:24.596Z,99438.78
2023-06-25T06:22:58.987Z,99436.16
2023-06-25T06:23:30.937Z,99440.88
2023-06-25T06:24:02.935Z,99431.06